createdAt,value
2023-04-24T00:01:59.463Z,6.43
2023-04-24T00:04:27.771Z,6.43
2023-04-24T00:06:58.454Z,6.47
2023-04-24T00:09:26.193Z,7.15
2023-04-24T00:11:54.947Z,5.80
2023-04-24T00:14:31.518Z,6.93
2023-04-24T00:16:59.161Z,6.75
2023-04-24T00:19:51.698Z,6.65
2023-04-24T00:22:19.755Z,6.80
2023-04-24T00:24:47.407Z,6.80
2023-04-24T00:27:15.065Z,6.85
2023-04-24T00:29:48.873Z,6.40
2023-04-24T00:32:16.866Z,6.82
2023-04-24T00:34:44.623Z,6.22
2023-04-24T00:37:12.818Z,7.13
2023-04-24T00:39:40.548Z,6.45
2023-04-24T00:42:42.884Z,6.35
2023-04-24T00:45:10.923Z,6.15
2023-04-24T00:47:38.665Z,6.07
2023-04-24T00:50:07.862Z,6.43
2023-04-24T00:52:36.163Z,6.28
2023-04-24T00:55:04.188Z,6.85
2023-04-24T00:57:32.313Z,6.20
2023-04-24T00:59:59.925Z,6.25
2023-04-24T01:02:27.763Z,6.38
2023-04-24T01:04:55.793Z,6.70
2023-04-24T01:07:23.509Z,5.95
2023-04-24T01:09:52.393Z,5.63
2023-04-24T01:12:21.231Z,6.25
2023-04-24T01:14:48.828Z,5.72
2023-04-24T01:17:16.459Z,7.28
2023-04-24T01:19:46.260Z,8.00
2023-04-24T01:22:17.497Z,6.80
2023-04-24T01:24:45.302Z,6.00
2023-04-24T01:27:13.622Z,6.78
2023-04-24T01:29:41.807Z,6.20
2023-04-24T01:32:09.908Z,6.68
2023-04-24T01:34:38.297Z,6.38
2023-04-24T01:37:06.569Z,6.28
2023-04-24T01:39:46.241Z,6.03
2023-04-24T01:42:14.660Z,5.95
2023-04-24T01:44:43.170Z,6.20
2023-04-24T01:47:11.143Z,6.10
2023-04-24T01:49:41.063Z,6.47
2023-04-24T01:52:09.124Z,6.00
2023-04-24T01:54:36.699Z,6.18
2023-04-24T01:57:04.848Z,6.25
2023-04-24T01:59:34.725Z,5.70
2023-04-24T02:02:02.473Z,5.82
2023-04-24T02:04:30.548Z,5.63
2023-04-24T02:06:58.243Z,5.25
2023-04-24T02:09:26.285Z,5.07
2023-04-24T02:11:53.963Z,4.80
2023-04-24T02:14:21.607Z,4.25
2023-04-24T02:16:49.364Z,4.40
2023-04-24T02:19:17.174Z,3.65
2023-04-24T02:21:44.687Z,4.22
2023-04-24T02:24:12.518Z,4.60
2023-04-24T02:26:40.276Z,4.22
2023-04-24T02:29:07.795Z,4.28
2023-04-24T02:31:35.504Z,4.40
2023-04-24T02:34:03.493Z,4.75
2023-04-24T02:36:31.611Z,3.92
2023-04-24T02:38:59.245Z,5.43
2023-04-24T02:41:32.369Z,5.30
2023-04-24T02:44:01.622Z,5.40
2023-04-24T02:46:29.258Z,5.32
2023-04-24T02:48:56.833Z,5.25
2023-04-24T02:51:24.873Z,5.85
2023-04-24T02:53:52.446Z,5.45
2023-04-24T02:56:20.229Z,5.85
2023-04-24T02:58:47.863Z,6.03
2023-04-24T03:01:15.900Z,5.55
2023-04-24T03:03:43.610Z,5.35
2023-04-24T03:06:12.043Z,5.72
2023-04-24T03:08:39.560Z,5.10
2023-04-24T03:11:07.128Z,6.25
2023-04-24T03:13:34.804Z,5.10
2023-04-24T03:16:02.424Z,5.43
2023-04-24T03:18:29.979Z,5.72
2023-04-24T03:20:57.577Z,5.53
2023-04-24T03:23:25.506Z,5.85
2023-04-24T03:25:53.602Z,6.30
2023-04-24T03:28:21.253Z,5.68
2023-04-24T03:30:48.951Z,5.40
2023-04-24T03:33:16.691Z,5.90
2023-04-24T03:35:44.260Z,5.60
2023-04-24T03:38:12.032Z,6.05
2023-04-24T03:40:39.575Z,5.72
2023-04-24T03:43:07.388Z,6.10
2023-04-24T03:45:34.933Z,5.15
2023-04-24T03:48:02.566Z,5.47
2023-04-24T03:50:30.705Z,4.93
2023-04-24T03:52:58.244Z,4.50
2023-04-24T03:55:25.906Z,5.05
2023-04-24T03:57:53.468Z,5.38
2023-04-24T04:00:22.164Z,4.50
2023-04-24T04:02:49.938Z,4.78
2023-04-24T04:05:17.727Z,3.88
2023-04-24T04:07:45.245Z,3.88
2023-04-24T04:10:12.868Z,4.00
2023-04-24T04:12:40.515Z,3.58
2023-04-24T04:15:08.398Z,3.15
2023-04-24T04:17:36.102Z,3.63
2023-04-24T04:20:10.110Z,3.22
2023-04-24T04:22:38.163Z,2.80
2023-04-24T04:25:05.984Z,3.40
2023-04-24T04:27:33.680Z,3.80
2023-04-24T04:30:05.752Z,3.55
2023-04-24T04:32:34.475Z,3.55
2023-04-24T04:35:04.258Z,3.40
2023-04-24T04:37:32.564Z,3.20
2023-04-24T04:40:01.076Z,3.38
2023-04-24T04:42:29.644Z,3.20
2023-04-24T04:44:58.575Z,3.65
2023-04-24T04:47:26.684Z,3.10
2023-04-24T04:49:54.301Z,2.85
2023-04-24T04:52:26.037Z,3.65
2023-04-24T04:54:54.024Z,3.42
2023-04-24T04:57:21.697Z,3.42
2023-04-24T04:59:49.196Z,4.22
2023-04-24T05:02:17.243Z,4.40
2023-04-24T05:04:44.915Z,4.60
2023-04-24T05:07:13.147Z,4.72
2023-04-24T05:09:40.928Z,5.78
2023-04-24T05:12:08.789Z,5.75
2023-04-24T05:14:36.425Z,5.45
2023-04-24T05:17:04.245Z,5.22
2023-04-24T05:19:34.063Z,4.85
2023-04-24T05:22:04.682Z,5.93
2023-04-24T05:24:32.273Z,6.25
2023-04-24T05:27:00.358Z,5.95
2023-04-24T05:29:27.917Z,6.00
2023-04-24T05:31:55.950Z,5.85
2023-04-24T05:34:23.554Z,6.00
2023-04-24T05:36:51.865Z,5.30
2023-04-24T05:39:19.773Z,5.18
2023-04-24T05:41:47.235Z,5.10
2023-04-24T05:44:14.975Z,5.35
2023-04-24T05:46:42.585Z,5.10
2023-04-24T05:49:10.098Z,6.45
2023-04-24T05:51:37.644Z,6.20
2023-04-24T05:54:05.175Z,5.45
2023-04-24T05:56:32.729Z,5.20
2023-04-24T05:59:00.236Z,5.00
2023-04-24T06:01:28.097Z,5.35
2023-04-24T06:03:55.762Z,5.55
2023-04-24T06:06:23.496Z,5.53
2023-04-24T06:08:51.097Z,5.28
2023-04-24T06:11:18.565Z,5.20
2023-04-24T06:13:46.793Z,5.30
2023-04-24T06:16:14.454Z,5.43
2023-04-24T06:18:41.997Z,4.88
2023-04-24T06:21:09.530Z,5.03
2023-04-24T06:23:37.281Z,5.50
2023-04-24T06:26:04.745Z,5.32
2023-04-24T06:28:32.366Z,5.13
2023-04-24T06:30:59.912Z,4.78
2023-04-24T06:33:27.578Z,5.72
2023-04-24T06:35:55.181Z,5.78
2023-04-24T06:38:22.714Z,5.72
2023-04-24T06:40:50.249Z,6.22
2023-04-24T06:43:17.763Z,5.63
2023-04-24T06:45:45.382Z,5.80
2023-04-24T06:48:13.067Z,6.65
2023-04-24T06:50:40.830Z,5.93
2023-04-24T06:53:08.401Z,6.03
2023-04-24T06:55:37.278Z,6.60
2023-04-24T06:58:04.928Z,7.07
2023-04-24T07:00:32.540Z,6.22
2023-04-24T07:03:00.232Z,6.03
2023-04-24T07:05:27.915Z,7.07
2023-04-24T07:07:55.501Z,6.90
2023-04-24T07:10:22.953Z,6.72
2023-04-24T07:12:50.523Z,6.97
2023-04-24T07:15:18.039Z,7.25
2023-04-24T07:17:45.711Z,7.40
2023-04-24T07:20:15.526Z,7.28
2023-04-24T07:22:43.149Z,7.20
2023-04-24T07:25:10.996Z,7.20
2023-04-24T07:27:38.904Z,6.78
2023-04-24T07:30:08.074Z,5.97
2023-04-24T07:32:36.223Z,5.10
2023-04-24T07:35:04.029Z,5.72
2023-04-24T07:37:31.693Z,6.70
2023-04-24T07:39:59.354Z,5.07
2023-04-24T07:42:26.876Z,4.07
2023-04-24T07:44:54.426Z,4.35
2023-04-24T07:47:21.996Z,4.88
2023-04-24T07:49:49.571Z,4.75
2023-04-24T07:52:17.122Z,3.83
2023-04-24T07:54:44.935Z,3.47
2023-04-24T07:57:12.770Z,3.63
2023-04-24T07:59:40.390Z,3.65
2023-04-24T08:02:08.169Z,2.88
2023-04-24T08:04:35.918Z,2.88
2023-04-24T08:07:03.451Z,2.63
2023-04-24T08:09:31.085Z,2.80
2023-04-24T08:11:58.689Z,2.63
2023-04-24T08:14:26.237Z,2.50
2023-04-24T08:17:00.633Z,2.20
2023-04-24T08:19:28.227Z,2.45
2023-04-24T08:21:55.710Z,2.80
2023-04-24T08:24:24.182Z,3.13
2023-04-24T08:26:52.665Z,4.10
2023-04-24T08:29:20.142Z,3.95
2023-04-24T08:31:47.806Z,3.88
2023-04-24T08:34:15.694Z,4.20
2023-04-24T08:36:46.954Z,3.97
2023-04-24T08:39:15.976Z,3.97
2023-04-24T08:41:44.355Z,3.78
2023-04-24T08:44:13.779Z,3.47
2023-04-24T08:46:42.417Z,2.90
2023-04-24T08:49:09.930Z,2.90
2023-04-24T08:51:39.111Z,2.83
2023-04-24T08:54:08.414Z,2.53
2023-04-24T08:56:40.301Z,2.70
2023-04-24T08:59:08.125Z,2.58
2023-04-24T09:01:38.902Z,2.83
2023-04-24T09:04:09.180Z,2.45
2023-04-24T09:06:37.332Z,2.45
2023-04-24T09:09:04.914Z,2.50
2023-04-24T09:11:36.368Z,2.83
2023-04-24T09:14:04.965Z,2.30
2023-04-24T09:16:36.436Z,2.70
2023-04-24T09:19:04.477Z,2.70
2023-04-24T09:21:35.934Z,2.78
2023-04-24T09:24:06.917Z,2.50
2023-04-24T09:26:37.420Z,2.40
2023-04-24T09:29:06.176Z,2.60
2023-04-24T09:31:34.084Z,2.42
2023-04-24T09:34:08.189Z,2.75
2023-04-24T09:36:42.065Z,2.50
2023-04-24T09:39:16.993Z,2.95
2023-04-24T09:41:58.985Z,2.70
2023-04-24T09:44:29.168Z,2.95
2023-04-24T09:47:01.196Z,3.00
2023-04-24T09:49:34.453Z,3.00
2023-04-24T09:52:10.270Z,2.45
2023-04-24T09:54:39.546Z,2.33
2023-04-24T09:57:10.390Z,2.40
2023-04-24T09:59:44.514Z,2.40
2023-04-24T10:02:20.383Z,2.30
2023-04-24T10:05:00.751Z,2.05
2023-04-24T10:07:28.773Z,2.17
2023-04-24T10:09:56.803Z,2.17
2023-04-24T10:12:26.299Z,1.67
2023-04-24T10:14:54.379Z,1.92
2023-04-24T10:17:23.046Z,1.85
2023-04-24T10:19:51.089Z,1.60
2023-04-24T10:22:19.267Z,1.70
2023-04-24T10:24:48.572Z,1.27
2023-04-24T10:27:17.366Z,1.98
2023-04-24T10:29:46.519Z,1.77
2023-04-24T10:32:13.991Z,2.10
2023-04-24T10:34:41.665Z,2.10
2023-04-24T10:37:09.292Z,1.67
2023-04-24T10:39:38.639Z,1.90
2023-04-24T10:42:16.949Z,1.88
2023-04-24T10:44:44.627Z,1.83
2023-04-24T10:47:15.616Z,2.15
2023-04-24T10:49:43.767Z,2.25
2023-04-24T10:52:12.009Z,1.60
2023-04-24T10:54:42.210Z,2.03
2023-04-24T10:57:21.850Z,1.83
2023-04-24T11:00:11.331Z,1.95
2023-04-24T11:02:40.597Z,2.20
2023-04-24T11:05:08.744Z,1.35
2023-04-24T11:08:13.629Z,1.70
2023-04-24T11:10:48.700Z,1.38
2023-04-24T11:13:22.785Z,1.23
2023-04-24T11:16:16.238Z,1.95
2023-04-24T11:18:51.980Z,1.88
2023-04-24T11:21:19.905Z,2.03
2023-04-24T11:23:48.154Z,2.00
2023-04-24T11:26:31.395Z,2.10
2023-04-24T11:29:09.011Z,1.90
2023-04-24T11:31:51.034Z,1.83
2023-04-24T11:34:19.313Z,1.80
2023-04-24T11:36:48.864Z,1.63
2023-04-24T11:39:16.604Z,1.80
2023-04-24T11:41:44.111Z,2.00
2023-04-24T11:44:12.774Z,1.92
2023-04-24T11:46:41.512Z,1.90
2023-04-24T11:49:10.032Z,1.95
2023-04-24T11:51:51.063Z,2.22
2023-04-24T11:54:21.130Z,1.65
2023-04-24T11:56:49.312Z,1.58
2023-04-24T11:59:16.789Z,1.60
2023-04-24T12:01:49.041Z,1.60
2023-04-24T12:04:19.115Z,2.00
2023-04-24T12:07:09.787Z,1.70
2023-04-24T12:09:47.687Z,1.70
2023-04-24T12:12:17.640Z,1.70
2023-04-24T12:14:53.937Z,1.55
2023-04-24T12:17:35.137Z,1.92
2023-04-24T12:20:08.126Z,1.80
2023-04-24T12:22:46.766Z,1.70
2023-04-24T12:25:15.828Z,1.63
2023-04-24T12:27:44.324Z,1.90
2023-04-24T12:30:15.732Z,1.80
2023-04-24T12:32:44.905Z,1.98
2023-04-24T12:35:12.712Z,1.90
2023-04-24T12:37:45.816Z,1.77
2023-04-24T12:40:16.045Z,2.00
2023-04-24T12:42:50.911Z,2.00
2023-04-24T12:45:21.070Z,1.95
2023-04-24T12:47:50.118Z,1.80
2023-04-24T12:50:17.785Z,1.90
2023-04-24T12:52:45.551Z,2.03
2023-04-24T12:55:13.346Z,2.00
2023-04-24T12:57:41.565Z,2.40
2023-04-24T13:00:09.989Z,2.13
2023-04-24T13:02:37.945Z,1.73
2023-04-24T13:05:06.242Z,1.67
2023-04-24T13:07:34.313Z,1.65
2023-04-24T13:10:01.890Z,1.50
2023-04-24T13:12:29.608Z,1.80
2023-04-24T13:14:57.324Z,1.60
2023-04-24T13:17:24.863Z,1.48
2023-04-24T13:19:53.038Z,1.70
2023-04-24T13:22:20.493Z,1.55
2023-04-24T13:24:49.930Z,2.10
2023-04-24T13:27:17.988Z,1.85
2023-04-24T13:29:45.875Z,1.60
2023-04-24T13:32:13.729Z,1.40
2023-04-24T13:34:41.384Z,1.50
2023-04-24T13:37:09.389Z,1.60
2023-04-24T13:39:36.967Z,1.85
2023-04-24T13:42:05.226Z,1.70
2023-04-24T13:44:32.917Z,1.38
2023-04-24T13:47:00.997Z,1.50
2023-04-24T13:49:28.781Z,1.40
2023-04-24T13:51:57.780Z,1.15
2023-04-24T13:54:27.096Z,1.55
2023-04-24T13:56:57.843Z,1.50
2023-04-24T13:59:25.347Z,1.30
2023-04-24T14:01:53.146Z,1.15
2023-04-24T14:04:21.205Z,1.20
2023-04-24T14:06:48.870Z,1.13
2023-04-24T14:09:16.532Z,2.38
2023-04-24T14:11:44.377Z,1.40
2023-04-24T14:14:12.862Z,1.70
2023-04-24T14:16:40.735Z,1.25
2023-04-24T14:19:08.430Z,1.58
2023-04-24T14:21:36.087Z,1.38
2023-04-24T14:24:03.948Z,1.20
2023-04-24T14:26:31.593Z,1.40
2023-04-24T14:29:11.471Z,1.52
2023-04-24T14:31:42.674Z,1.50
2023-04-24T14:34:10.567Z,1.73
2023-04-24T14:36:38.237Z,1.45
2023-04-24T14:39:08.340Z,1.27
2023-04-24T14:41:37.188Z,1.48
2023-04-24T14:44:05.997Z,1.58
2023-04-24T14:46:33.853Z,1.40
2023-04-24T14:49:01.361Z,1.23
2023-04-24T14:51:28.900Z,1.60
2023-04-24T14:53:57.780Z,1.50
2023-04-24T14:56:25.585Z,1.33
2023-04-24T14:58:53.773Z,1.60
2023-04-24T15:01:21.610Z,1.38
2023-04-24T15:03:49.557Z,1.17
2023-04-24T15:06:17.564Z,1.27
2023-04-24T15:08:46.911Z,1.45
2023-04-24T15:11:16.260Z,1.15
2023-04-24T15:13:46.750Z,1.02
2023-04-24T15:16:15.107Z,0.70
2023-04-24T15:18:43.169Z,1.13
2023-04-24T15:21:11.187Z,1.77
2023-04-24T15:23:38.670Z,0.85
2023-04-24T15:26:06.252Z,0.88
2023-04-24T15:28:34.185Z,2.42
2023-04-24T15:31:01.782Z,2.63
2023-04-24T15:33:30.488Z,2.00
2023-04-24T15:35:58.108Z,1.15
2023-04-24T15:38:25.881Z,1.40
2023-04-24T15:40:53.373Z,2.95
2023-04-24T15:43:21.178Z,4.15
2023-04-24T15:45:51.019Z,2.83
2023-04-24T15:48:19.839Z,1.20
2023-04-24T15:50:47.370Z,1.50
2023-04-24T15:53:14.900Z,1.25
2023-04-24T15:55:42.344Z,1.00
2023-04-24T15:58:10.012Z,1.23
2023-04-24T16:00:37.514Z,1.20
2023-04-24T16:03:06.924Z,0.90
2023-04-24T16:05:36.262Z,1.10
2023-04-24T16:08:03.821Z,1.20
2023-04-24T16:10:31.436Z,1.10
2023-04-24T16:13:01.290Z,1.00
2023-04-24T16:15:28.762Z,1.00
2023-04-24T16:17:56.338Z,0.80
2023-04-24T16:20:24.045Z,0.90
2023-04-24T16:22:51.867Z,0.77
2023-04-24T16:25:19.781Z,0.68
2023-04-24T16:27:48.909Z,0.80
2023-04-24T16:30:16.794Z,1.23
2023-04-24T16:32:44.383Z,1.20
2023-04-24T16:35:12.110Z,1.40
2023-04-24T16:37:40.053Z,0.88
2023-04-24T16:40:11.188Z,1.52
2023-04-24T16:42:39.783Z,1.00
2023-04-24T16:45:08.068Z,0.80
2023-04-24T16:47:36.606Z,0.90
2023-04-24T16:50:04.742Z,0.90
2023-04-24T16:52:32.307Z,1.10
2023-04-24T16:54:59.953Z,1.02
2023-04-24T16:57:27.759Z,1.10
2023-04-24T16:59:55.219Z,0.80
2023-04-24T17:02:22.791Z,0.80
2023-04-24T17:04:50.474Z,0.82
2023-04-24T17:07:18.225Z,1.02
2023-04-24T17:09:45.784Z,1.17
2023-04-24T17:12:13.282Z,1.02
2023-04-24T17:14:40.745Z,0.88
2023-04-24T17:17:08.289Z,1.00
2023-04-24T17:19:35.944Z,0.90
2023-04-24T17:22:06.075Z,0.90
2023-04-24T17:24:34.048Z,0.90
2023-04-24T17:27:07.947Z,0.90
2023-04-24T17:29:39.587Z,1.08
2023-04-24T17:32:07.108Z,0.90
2023-04-24T17:34:34.609Z,0.75
2023-04-24T17:37:02.452Z,0.80
2023-04-24T17:39:29.971Z,1.02
2023-04-24T17:41:57.702Z,1.23
2023-04-24T17:44:25.177Z,1.42
2023-04-24T17:46:52.700Z,1.20
2023-04-24T17:49:20.234Z,1.70
2023-04-24T17:51:47.711Z,1.33
2023-04-24T17:54:16.996Z,1.33
2023-04-24T17:56:45.954Z,2.42
2023-04-24T17:59:13.570Z,1.73
2023-04-24T18:01:41.107Z,1.80
2023-04-24T18:04:09.395Z,1.13
2023-04-24T18:06:37.298Z,1.77
2023-04-24T18:09:05.051Z,1.33
2023-04-24T18:11:32.946Z,1.33
2023-04-24T18:14:00.505Z,1.27
2023-04-24T18:16:28.137Z,1.63
2023-04-24T18:18:55.792Z,1.88
2023-04-24T18:21:25.104Z,2.15
2023-04-24T18:23:52.802Z,1.65
2023-04-24T18:26:20.679Z,1.35
2023-04-24T18:28:48.975Z,1.60
2023-04-24T18:31:17.114Z,1.77
2023-04-24T18:33:44.836Z,4.63
2023-04-24T18:36:12.354Z,2.70
2023-04-24T18:38:40.169Z,2.00
2023-04-24T18:41:07.747Z,4.38
2023-04-24T18:43:35.213Z,2.45
2023-04-24T18:46:02.986Z,2.03
2023-04-24T18:48:31.437Z,1.80
2023-04-24T18:50:58.976Z,2.47
2023-04-24T18:53:26.463Z,1.58
2023-04-24T18:55:53.993Z,1.80
2023-04-24T18:58:21.433Z,2.17
2023-04-24T19:00:48.985Z,1.58
2023-04-24T19:03:16.767Z,1.58
2023-04-24T19:05:44.441Z,1.70
2023-04-24T19:08:12.177Z,1.75
2023-04-24T19:10:39.954Z,1.80
2023-04-24T19:13:07.421Z,1.23
2023-04-24T19:15:34.924Z,1.67
2023-04-24T19:18:02.665Z,1.40
2023-04-24T19:20:30.392Z,1.70
2023-04-24T19:22:57.977Z,1.73
2023-04-24T19:25:25.501Z,1.70
2023-04-24T19:27:53.052Z,1.20
2023-04-24T19:30:20.632Z,1.52
2023-04-24T19:32:48.273Z,1.65
2023-04-24T19:35:15.925Z,1.80
2023-04-24T19:37:43.604Z,1.65
2023-04-24T19:40:13.005Z,1.55
2023-04-24T19:42:44.226Z,1.60
2023-04-24T19:45:13.323Z,2.22
2023-04-24T19:47:40.984Z,1.85
2023-04-24T19:50:09.857Z,1.40
2023-04-24T19:52:37.398Z,1.63
2023-04-24T19:55:05.565Z,1.67
2023-04-24T19:57:33.017Z,1.60
2023-04-24T20:00:00.692Z,2.05
2023-04-24T20:02:28.341Z,1.92
2023-04-24T20:04:56.009Z,1.70
2023-04-24T20:07:23.821Z,1.83
2023-04-24T20:09:51.548Z,1.73
2023-04-24T20:12:20.857Z,1.70
2023-04-24T20:14:48.800Z,1.90
2023-04-24T20:17:17.522Z,2.00
2023-04-24T20:19:45.282Z,1.90
2023-04-24T20:22:13.444Z,2.28
2023-04-24T20:24:41.319Z,2.45
2023-04-24T20:27:08.793Z,2.80
2023-04-24T20:29:36.269Z,3.58
2023-04-24T20:32:03.812Z,2.90
2023-04-24T20:34:32.042Z,2.63
2023-04-24T20:36:59.639Z,1.92
2023-04-24T20:39:27.304Z,3.42
2023-04-24T20:41:54.798Z,3.67
2023-04-24T20:44:22.933Z,2.08
2023-04-24T20:46:50.803Z,1.90
2023-04-24T20:49:18.338Z,2.15
2023-04-24T20:51:45.950Z,1.95
2023-04-24T20:54:13.655Z,1.50
2023-04-24T20:56:41.459Z,1.67
2023-04-24T20:59:09.074Z,2.20
2023-04-24T21:01:36.824Z,2.08
2023-04-24T21:04:04.497Z,2.20
2023-04-24T21:06:32.348Z,2.25
2023-04-24T21:09:00.158Z,2.30
2023-04-24T21:11:27.697Z,2.15
2023-04-24T21:13:55.161Z,2.38
2023-04-24T21:16:22.750Z,2.25
2023-04-24T21:18:50.436Z,1.88
2023-04-24T21:21:17.865Z,2.40
2023-04-24T21:23:45.358Z,2.13
2023-04-24T21:26:12.975Z,2.03
2023-04-24T21:28:40.948Z,2.00
2023-04-24T21:31:08.478Z,2.13
2023-04-24T21:33:36.119Z,2.45
2023-04-24T21:36:03.967Z,2.28
2023-04-24T21:38:31.609Z,2.55
2023-04-24T21:40:59.060Z,2.08
2023-04-24T21:43:37.165Z,2.45
2023-04-24T21:46:11.825Z,2.38
2023-04-24T21:48:39.434Z,2.03
2023-04-24T21:51:06.924Z,2.65
2023-04-24T21:53:34.482Z,2.08
2023-04-24T21:56:02.078Z,2.45
2023-04-24T21:58:29.702Z,1.98
2023-04-24T22:00:57.299Z,1.85
2023-04-24T22:03:24.904Z,1.98
2023-04-24T22:05:52.466Z,1.98
2023-04-24T22:08:20.422Z,1.95
2023-04-24T22:10:48.653Z,2.55
2023-04-24T22:13:16.307Z,1.60
2023-04-24T22:15:44.135Z,1.65
2023-04-24T22:18:13.511Z,1.50
2023-04-24T22:20:41.020Z,2.08
2023-04-24T22:23:08.584Z,1.73
2023-04-24T22:25:36.203Z,2.10
2023-04-24T22:28:04.114Z,1.40
2023-04-24T22:30:31.685Z,1.75
2023-04-24T22:32:59.179Z,1.75
2023-04-24T22:35:26.634Z,1.88
2023-04-24T22:37:58.340Z,2.10
2023-04-24T22:40:25.982Z,2.20
2023-04-24T22:42:53.581Z,2.25
2023-04-24T22:45:24.051Z,1.90
2023-04-24T22:47:51.754Z,1.90
2023-04-24T22:50:20.778Z,1.90
2023-04-24T22:52:48.434Z,1.92
2023-04-24T22:55:15.925Z,1.52
2023-04-24T22:57:43.412Z,2.15
2023-04-24T23:00:12.904Z,1.80
2023-04-24T23:02:41.560Z,1.80
2023-04-24T23:05:11.086Z,1.92
2023-04-24T23:07:39.231Z,2.03
2023-04-24T23:10:07.364Z,1.83
2023-04-24T23:12:35.039Z,1.88
2023-04-24T23:15:02.600Z,2.42
2023-04-24T23:17:30.113Z,2.45
2023-04-24T23:19:57.896Z,2.28
2023-04-24T23:22:25.621Z,2.00
2023-04-24T23:24:53.092Z,2.30
2023-04-24T23:27:20.811Z,2.53
2023-04-24T23:29:49.232Z,3.00
2023-04-24T23:32:16.869Z,2.20
2023-04-24T23:34:44.406Z,1.95
2023-04-24T23:37:12.273Z,2.10
2023-04-24T23:39:39.790Z,2.05
2023-04-24T23:42:07.856Z,2.03
2023-04-24T23:44:35.547Z,2.30
2023-04-24T23:47:03.531Z,2.00
2023-04-24T23:49:31.126Z,2.00
2023-04-24T23:51:58.710Z,1.98
2023-04-24T23:54:26.553Z,2.10
2023-04-24T23:56:54.041Z,2.40
2023-04-24T23:59:22.020Z,2.22
